Arbúcies





Hora UTC 09:05
Temperatura 13.9 ºC
Humitat 36.8 %
Pressió 1018.0 hPa
Pluja 0.0 mm
Velocitat vent 5.2 km/h
Direcció vent ENE
Radiació solar 693.2 W/m²

Dades diàries 2021-04-19



Hora UTC (hivern +1h; estiu +2h)
Temperatura (ºC) Humitat (%) Pressió (hPa) Velocitat vent (km/h) Precipitació (mm) Radiació solar (W/m²)
Hora UTC Aire Humitat Pressió Vel. Dir. Vel. Max Dir. Intent. màx 5 min. Rad. Sol.
00:05 4.0 79.5 1020.0 6.7 SW 8.5 SSW 0.0 0.0
00:10 3.9 80.7 1020.0 6.6 SSW 8.8 SSW 0.0 0.0
00:15 3.9 81.4 1020.0 8.9 SSW 11.3 SSW 0.0 0.0
00:20 3.9 81.8 1020.0 9.4 SSW 11.6 SW 0.0 0.0
00:25 4.1 81.5 1019.0 9.2 SSW 12.0 SSW 0.0 0.0
00:30 4.1 80.5 1020.0 7.6 SSW 8.8 SW 0.0 0.0
00:35 4.1 80.6 1020.0 8.5 SSW 10.6 SSW 0.0 0.0
00:40 4.1 80.3 1019.0 8.9 SSW 12.3 SW 0.0 0.0
00:45 4.1 80.7 1020.0 8.6 SSW 10.9 SW 0.0 0.0
00:50 4.0 80.6 1019.0 9.2 SSW 10.6 SSW 0.0 0.0
00:55 3.9 81.1 1020.0 9.1 SSW 9.9 SSW 0.0 0.0
01:00 3.9 81.6 1019.0 8.2 SSW 10.2 SSW 0.0 0.0
01:05 3.8 81.5 1019.0 8.5 SW 9.9 SW 0.0 0.0
01:10 3.8 82.0 1019.0 8.9 SSW 10.9 SW 0.0 0.0
01:15 3.7 82.3 1019.0 9.2 SSW 10.9 SSW 0.0 0.0
01:20 3.8 82.8 1019.0 9.4 SSW 11.6 SSW 0.0 0.0
01:25 4.1 82.0 1019.0 10.5 SSW 14.1 SW 0.0 0.0
01:30 4.3 80.2 1019.0 10.0 SSW 12.3 SSW 0.0 0.0
01:35 4.2 79.7 1020.0 8.5 SW 11.3 SSW 0.0 0.0
01:40 4.0 80.4 1019.0 8.1 SSW 10.2 SSW 0.0 0.0
01:45 4.1 81.2 1019.0 9.0 SSW 11.6 SW 0.0 0.0
01:50 4.4 79.7 1019.0 8.1 SSW 10.6 SSW 0.0 0.0
01:55 4.5 79.5 1019.0 8.1 SSW 10.9 SSW 0.0 0.0
02:00 4.3 79.6 1019.0 6.2 SW 9.2 SW 0.0 0.0
02:05 4.0 80.6 1020.0 5.3 SW 7.8 SW 0.0 0.0
02:10 3.8 81.7 1019.0 5.3 SW 9.2 SSW 0.0 0.0
02:15 3.7 82.3 1019.0 5.0 SW 7.4 SW 0.0 0.0
02:20 3.6 82.9 1019.0 4.6 SW 6.4 SW 0.0 0.0
02:25 3.5 83.4 1019.0 4.7 SW 6.7 SW 0.0 0.0
02:30 3.5 83.9 1019.0 5.7 SW 7.4 SW 0.0 0.0
02:35 3.4 84.5 1019.0 7.7 SW 10.2 SW 0.0 0.0
02:40 3.4 84.9 1019.0 5.4 SW 9.2 SW 0.0 0.0
02:45 3.3 85.2 1019.0 3.2 WSW 6.0 WSW 0.0 0.0
02:50 3.3 85.6 1019.0 7.6 SW 10.2 SSW 0.0 0.0
02:55 3.3 86.0 1019.0 5.3 SW 8.8 SW 0.0 0.0
03:00 3.2 86.2 1019.0 7.7 SW 12.0 SSW 0.0 0.0
03:05 3.3 86.6 1019.0 9.4 SW 10.9 SW 0.0 0.0
03:10 3.3 86.7 1019.0 8.8 SSW 10.6 SSW 0.0 0.0
03:15 3.3 86.5 1019.0 7.7 SSW 9.2 SSW 0.0 0.0
03:20 3.3 86.6 1019.0 7.9 SW 9.5 SSW 0.0 0.0
03:25 3.3 86.4 1019.0 7.9 SSW 9.2 SSW 0.0 0.0
03:30 3.4 86.5 1019.0 8.6 SSW 10.9 SW 0.0 0.0
03:35 3.5 86.5 1019.0 9.6 SSW 12.7 SW 0.0 0.0
03:40 3.7 85.3 1019.0 8.5 SW 10.9 SW 0.0 0.0
03:45 3.6 85.0 1019.0 8.1 SW 9.9 SSW 0.0 0.0
03:50 3.6 85.4 1019.0 8.1 SSW 9.9 SW 0.0 0.0
03:55 3.7 85.3 1019.0 7.5 SSW 10.2 SSW 0.0 0.0
04:00 3.6 85.2 1019.0 7.3 SSW 8.5 SSW 0.0 0.0
04:05 3.7 85.5 1019.0 7.1 SSW 9.9 SSW 0.0 0.0
04:10 3.9 84.7 1019.0 6.9 SSW 8.5 SW 0.0 0.0
04:15 3.9 84.4 1019.0 7.1 SW 10.9 SW 0.0 0.0
04:20 3.9 84.4 1019.0 7.6 SSW 9.5 SW 0.0 0.0
04:25 3.9 84.3 1019.0 7.8 SSW 10.2 SSW 0.0 0.0
04:30 4.0 84.1 1019.0 9.0 SW 13.4 SSW 0.0 0.0
04:35 4.2 82.8 1019.0 9.9 SW 14.1 WSW 0.0 0.0
04:40 4.2 81.6 1019.0 9.8 SW 14.5 WSW 0.0 0.0
04:45 4.2 81.7 1018.0 10.8 SW 16.9 SW 0.0 0.0
04:50 4.1 81.7 1019.0 10.0 SW 14.8 SSW 0.0 0.0
04:55 4.0 81.9 1019.0 9.3 SW 12.3 SW 0.0 0.0
05:00 3.9 82.4 1019.0 9.0 SW 12.0 SW 0.0 0.8
05:05 3.9 82.6 1019.0 8.5 SW 14.1 SSW 0.0 3.2
05:10 4.1 82.0 1019.0 7.7 SW 12.7 SW 0.0 5.7
05:15 4.1 81.6 1019.0 8.0 SW 12.7 SW 0.0 9.2
05:20 4.0 81.5 1019.0 7.3 SW 10.2 SW 0.0 13.5
05:25 4.0 82.2 1019.0 7.7 SW 14.1 WSW 0.0 18.3
05:30 4.3 80.8 1019.0 7.6 SW 11.3 W 0.0 30.3
05:35 4.6 79.3 1019.0 7.8 SW 12.3 SW 0.0 44.9
05:40 4.7 78.1 1019.0 7.7 SW 13.1 SSW 0.0 60.5
05:45 5.0 76.8 1019.0 8.1 SW 14.5 SW 0.0 71.6
05:50 5.5 73.4 1019.0 9.5 SW 14.1 SSW 0.0 85.3
05:55 6.0 69.7 1019.0 10.5 SW 16.2 SSW 0.0 95.9
06:00 6.0 69.9 1020.0 8.4 SSW 12.3 SSW 0.0 88.6
06:05 5.5 72.4 1019.0 9.7 SSW 12.3 SW 0.0 31.0
06:10 5.2 74.5 1019.0 11.3 SSW 14.5 SSW 0.0 32.7
06:15 5.3 74.0 1019.0 8.1 SSW 11.3 SSW 0.0 34.4
06:20 5.2 74.9 1019.0 10.2 SSW 13.8 SSW 0.0 39.1
06:25 5.2 74.7 1019.0 10.4 SSW 14.1 SSW 0.0 46.9
06:30 5.3 74.5 1019.0 10.4 SSW 13.8 SW 0.0 51.9
06:35 5.4 74.2 1019.0 10.1 SSW 14.1 SSW 0.0 55.3
06:40 5.5 74.3 1019.0 8.2 SSW 13.8 SW 0.0 56.3
06:45 5.6 74.0 1019.0 8.6 SSW 12.0 SSW 0.0 64.7
06:50 5.8 73.5 1019.0 10.3 SSW 18.0 SSW 0.0 87.6
06:55 6.0 73.0 1019.0 8.0 SW 14.1 SW 0.0 143.4
07:00 6.2 72.6 1020.0 10.0 SSW 14.1 SSW 0.0 193.5
07:05 6.5 71.6 1019.0 9.7 SSW 15.2 SW 0.0 226.1
07:10 7.0 69.2 1019.0 10.6 SSW 15.2 SSW 0.0 334.4
07:15 7.7 66.7 1019.0 9.7 SSW 15.5 SW 0.0 339.9
07:20 8.4 64.1 1019.0 7.5 SSW 10.2 SW 0.0 382.4
07:25 9.2 61.2 1019.0 5.8 SSW 10.9 SSW 0.0 354.7
07:30 10.0 59.9 1019.0 5.3 SSW 7.4 SW 0.0 422.2
07:35 10.9 57.0 1019.0 2.1 WSW 5.6 SW 0.0 456.8
07:40 11.6 51.8 1019.0 3.3 SSW 5.6 SSW 0.0 466.1
07:45 12.0 47.7 1019.0 2.6 SSW 6.7 SE 0.0 481.5
07:50 12.3 43.1 1019.0 2.1 NE 7.1 ESE 0.0 458.7
07:55 12.5 43.1 1018.0 1.9 SE 4.6 NW 0.0 503.6
08:00 12.9 41.2 1019.0 1.9 SSW 4.9 SSW 0.0 514.4
08:05 13.0 41.5 1019.0 3.8 SSE 7.8 SSW 0.0 533.0
08:10 13.1 40.6 1018.0 4.1 SSW 8.8 SSW 0.0 540.1
08:15 13.1 41.0 1018.0 4.2 SSW 9.2 SSW 0.0 551.9
08:20 13.2 40.8 1018.0 5.3 E 14.1 ENE 0.0 566.9
08:25 13.5 40.3 1018.0 2.6 SSE 6.0 SE 0.0 557.5
08:30 13.8 39.8 1019.0 1.9 N 4.2 N 0.0 553.2
08:35 13.6 39.2 1018.0 4.0 NNE 12.0 ENE 0.0 606.9
08:40 13.7 39.0 1018.0 3.3 ESE 8.1 ESE 0.0 622.6
08:45 13.7 37.6 1018.0 6.5 ENE 16.2 ENE 0.0 640.6
08:50 13.7 37.9 1018.0 5.7 E 13.1 ENE 0.0 653.8
08:55 13.9 37.4 1018.0 6.4 NE 15.2 ENE 0.0 667.4
09:00 14.0 37.3 1019.0 6.8 N 15.2 NNE 0.0 680.3
09:05 13.9 36.8 1018.0 5.2 ENE 13.1 ENE 0.0 693.2
Màxima 14.0 86.7 1020.0 11.3 SSW 18.0 SSW 0.0 693.2
Mínima 3.2 36.8 1018.0
Total 0.0